KGLH

Greenville Mid-Delta Airport

Greenville, Mississippi, USA
METAR KGLH 221653Z 00000KT 10SM FEW020 28/22 A3005 RMK AO2 SLP179 T02830217
Observed Flight Rules
May-22 @ 16:53 UTC (an hour ago) Visual Flight Rules
Visibility Clouds
10 miles
  • Few at 2,000' AGL
Temperatures Readings
Current 28°C / 82°F
Dewpoint 22°C / 72°F
Humidity 70%
Altimeter 30.05" Hg
Pressure 1017.9 hPa
Elevation 45
METAR KGLH 221653Z 00000KT 10SM FEW020 28/22 A3005 RMK AO2 SLP179 T02830217
Observed Flight Rules
May-22 @ 16:53 UTC
(an hour ago)
VFR
Clouds
  • Few at 2,000' AGL
Temperature Dewpoint
28°C / 82°F 22°C / 72°F
Humidity Altimeter Pressure
70% 30.05" Hg 1017.9 hPa